AMX629 MSLP-MMMX
Flight info
| Callsign | AMX629 |
|---|---|
| Flight time | 1h 51m |
| Altitude | 38000 |
| Route | OLISU4A OLISU UG436 AUR UR644 TAP UL423 IZT UT157 LARLO LARLO3B |
| Aircraft | B38M/M-SDE1FGHILORVWXY/HB1 |
Departure
| Time | 2026-04-23 21:44 |
|---|---|
| Airport | El Salvador International Airport Saint Óscar Arnulfo Romero y Galdámez (MSLP) |
Arrival
| Time | 2026-04-23 23:35 |
|---|---|
| Airport | Mexico City Benito Juárez International Airport (MMMX) |
| Time | Latitude | Longitude | Altitude | Speed | Heading |
|---|---|---|---|---|---|
| 2026-04-23 20:33 | 13.44328 | -89.05956 | 126 ft | 0 kts | 341° |
| 2026-04-23 21:35 | 13.44321 | -89.05953 | 94 ft | 4 kts | 340° |
| 2026-04-23 21:36 | 13.44275 | -89.05936 | 94 ft | 3 kts | 340° |
| 2026-04-23 21:36 | 13.44255 | -89.05923 | 94 ft | 4 kts | 296° |
| 2026-04-23 21:36 | 13.44253 | -89.05899 | 94 ft | 4 kts | 252° |
| 2026-04-23 21:37 | 13.44262 | -89.05875 | 96 ft | 4 kts | 250° |
| 2026-04-23 21:37 | 13.44264 | -89.05869 | 95 ft | 0 kts | 250° |
| 2026-04-23 21:40 | 13.44260 | -89.05878 | 95 ft | 5 kts | 247° |
| 2026-04-23 21:40 | 13.44188 | -89.05903 | 94 ft | 18 kts | 176° |
| 2026-04-23 21:41 | 13.44124 | -89.06006 | 97 ft | 20 kts | 251° |
| 2026-04-23 21:41 | 13.44073 | -89.06152 | 94 ft | 24 kts | 249° |
| 2026-04-23 21:41 | 13.44012 | -89.06323 | 96 ft | 26 kts | 250° |
| 2026-04-23 21:41 | 13.43948 | -89.06503 | 153 ft | 28 kts | 249° |
| 2026-04-23 21:42 | 13.43880 | -89.06692 | 153 ft | 29 kts | 250° |
| 2026-04-23 21:42 | 13.43834 | -89.06822 | 153 ft | 29 kts | 250° |
| 2026-04-23 21:42 | 13.43768 | -89.06991 | 152 ft | 14 kts | 220° |
| 2026-04-23 21:42 | 13.43664 | -89.06972 | 149 ft | 18 kts | 161° |
| 2026-04-23 21:43 | 13.43609 | -89.06927 | 147 ft | 7 kts | 81° |
| 2026-04-23 21:43 | 13.43621 | -89.06892 | 144 ft | 10 kts | 70° |
| 2026-04-23 21:43 | 13.43766 | -89.06486 | 149 ft | 86 kts | 70° |
| 2026-04-23 21:43 | 13.43932 | -89.06017 | 95 ft | 120 kts | 70° |
| 2026-04-23 21:44 | 13.44276 | -89.05071 | 115 ft | 158 kts | 72° |
| 2026-04-23 21:44 | 13.44623 | -89.03986 | 542 ft | 161 kts | 69° |
| 2026-04-23 21:44 | 13.45030 | -89.02871 | 963 ft | 167 kts | 68° |
| 2026-04-23 21:44 | 13.45470 | -89.01748 | 1405 ft | 174 kts | 68° |
| 2026-04-23 21:45 | 13.45904 | -89.00568 | 1929 ft | 176 kts | 70° |
| 2026-04-23 21:45 | 13.46322 | -88.99409 | 2731 ft | 176 kts | 72° |
| 2026-04-23 21:45 | 13.46407 | -88.98152 | 3532 ft | 179 kts | 111° |
| 2026-04-23 21:45 | 13.45614 | -88.97166 | 4090 ft | 189 kts | 155° |
| 2026-04-23 21:46 | 13.44290 | -88.96976 | 4484 ft | 204 kts | 195° |
| 2026-04-23 21:46 | 13.43109 | -88.97809 | 4879 ft | 216 kts | 239° |
| 2026-04-23 21:46 | 13.42764 | -88.99321 | 5356 ft | 230 kts | 275° |
| 2026-04-23 21:46 | 13.42933 | -89.01020 | 5788 ft | 249 kts | 272° |
| 2026-04-23 21:47 | 13.43007 | -89.02868 | 6194 ft | 269 kts | 272° |
| 2026-04-23 21:47 | 13.43084 | -89.04842 | 6694 ft | 281 kts | 272° |
| 2026-04-23 21:47 | 13.43188 | -89.06821 | 7494 ft | 283 kts | 278° |
| 2026-04-23 21:47 | 13.43872 | -89.08703 | 8239 ft | 284 kts | 304° |
| 2026-04-23 21:48 | 13.45086 | -89.10319 | 8949 ft | 289 kts | 308° |
| 2026-04-23 21:48 | 13.46339 | -89.11944 | 9731 ft | 291 kts | 309° |
| 2026-04-23 21:48 | 13.47613 | -89.13578 | 10405 ft | 298 kts | 309° |
| 2026-04-23 21:48 | 13.48957 | -89.15288 | 10732 ft | 317 kts | 309° |
| 2026-04-23 21:49 | 13.50379 | -89.17090 | 11095 ft | 332 kts | 309° |
| 2026-04-23 21:49 | 13.51849 | -89.18950 | 11739 ft | 336 kts | 309° |
| 2026-04-23 21:49 | 13.53325 | -89.20815 | 12526 ft | 338 kts | 309° |
| 2026-04-23 21:49 | 13.54819 | -89.22704 | 13233 ft | 342 kts | 309° |
| 2026-04-23 21:50 | 13.56322 | -89.24604 | 14018 ft | 344 kts | 309° |
| 2026-04-23 21:50 | 13.57843 | -89.26527 | 14673 ft | 347 kts | 309° |
| 2026-04-23 21:50 | 13.59370 | -89.28459 | 15336 ft | 351 kts | 309° |
| 2026-04-23 21:50 | 13.60926 | -89.30426 | 15945 ft | 355 kts | 309° |
| 2026-04-23 21:51 | 13.62483 | -89.32396 | 16613 ft | 358 kts | 309° |
| 2026-04-23 21:51 | 13.64068 | -89.34401 | 17148 ft | 364 kts | 309° |
| 2026-04-23 21:51 | 13.65672 | -89.36432 | 17772 ft | 366 kts | 309° |
| 2026-04-23 21:51 | 13.67277 | -89.38464 | 18421 ft | 367 kts | 308° |
| 2026-04-23 21:52 | 13.68898 | -89.40516 | 18917 ft | 372 kts | 309° |
| 2026-04-23 21:52 | 13.70532 | -89.42586 | 19443 ft | 373 kts | 308° |
| 2026-04-23 21:52 | 13.72171 | -89.44661 | 19994 ft | 375 kts | 308° |
| 2026-04-23 21:52 | 13.73822 | -89.46754 | 20450 ft | 379 kts | 308° |
| 2026-04-23 21:53 | 13.75491 | -89.48869 | 20940 ft | 382 kts | 308° |
| 2026-04-23 21:53 | 13.77172 | -89.50999 | 21445 ft | 384 kts | 308° |
| 2026-04-23 21:53 | 13.78863 | -89.53144 | 21933 ft | 388 kts | 308° |
| 2026-04-23 21:53 | 13.80566 | -89.55305 | 22423 ft | 391 kts | 308° |
| 2026-04-23 21:54 | 13.82283 | -89.57482 | 22907 ft | 393 kts | 308° |
| 2026-04-23 21:54 | 13.84010 | -89.59675 | 23388 ft | 395 kts | 308° |
| 2026-04-23 21:54 | 13.85749 | -89.61881 | 23779 ft | 398 kts | 308° |
| 2026-04-23 21:54 | 13.87493 | -89.64097 | 24213 ft | 398 kts | 308° |
| 2026-04-23 21:55 | 13.89243 | -89.66319 | 24598 ft | 401 kts | 308° |
| 2026-04-23 21:55 | 13.91008 | -89.68563 | 24925 ft | 405 kts | 308° |
| 2026-04-23 21:55 | 13.92782 | -89.70817 | 25304 ft | 407 kts | 308° |
| 2026-04-23 21:55 | 13.94567 | -89.73086 | 25719 ft | 409 kts | 308° |
| 2026-04-23 21:56 | 13.96364 | -89.75370 | 26083 ft | 412 kts | 308° |
| 2026-04-23 21:56 | 13.98170 | -89.77668 | 26470 ft | 414 kts | 308° |
| 2026-04-23 21:56 | 13.99983 | -89.79974 | 26837 ft | 416 kts | 308° |
| 2026-04-23 21:56 | 14.01808 | -89.82297 | 27206 ft | 418 kts | 307° |
| 2026-04-23 21:57 | 14.03644 | -89.84634 | 27565 ft | 421 kts | 307° |
| 2026-04-23 21:57 | 14.05483 | -89.86980 | 27914 ft | 423 kts | 307° |
| 2026-04-23 21:57 | 14.07333 | -89.89345 | 28286 ft | 425 kts | 307° |
| 2026-04-23 21:57 | 14.09167 | -89.91690 | 28615 ft | 427 kts | 307° |
| 2026-04-23 21:58 | 14.11036 | -89.94080 | 28958 ft | 429 kts | 307° |
| 2026-04-23 21:58 | 14.12917 | -89.96487 | 29299 ft | 432 kts | 307° |
| 2026-04-23 21:58 | 14.14806 | -89.98903 | 29632 ft | 434 kts | 307° |
| 2026-04-23 21:58 | 14.16704 | -90.01332 | 29951 ft | 437 kts | 307° |
| 2026-04-23 21:59 | 14.18611 | -90.03774 | 30260 ft | 439 kts | 307° |
| 2026-04-23 21:59 | 14.20527 | -90.06228 | 30540 ft | 440 kts | 307° |
| 2026-04-23 21:59 | 14.22453 | -90.08694 | 30858 ft | 442 kts | 307° |
| 2026-04-23 22:00 | 14.26311 | -90.13640 | 31453 ft | 444 kts | 307° |
| 2026-04-23 22:00 | 14.28249 | -90.16125 | 31706 ft | 446 kts | 307° |
| 2026-04-23 22:00 | 14.30202 | -90.18629 | 31967 ft | 448 kts | 307° |
| 2026-04-23 22:00 | 14.32160 | -90.21143 | 32209 ft | 451 kts | 307° |
| 2026-04-23 22:01 | 14.34129 | -90.23669 | 32468 ft | 453 kts | 307° |
| 2026-04-23 22:01 | 14.36105 | -90.26206 | 32716 ft | 455 kts | 307° |
| 2026-04-23 22:01 | 14.38087 | -90.28751 | 33019 ft | 455 kts | 306° |
| 2026-04-23 22:01 | 14.40066 | -90.31294 | 33344 ft | 455 kts | 306° |
| 2026-04-23 22:02 | 14.42048 | -90.33841 | 33673 ft | 455 kts | 306° |
| 2026-04-23 22:02 | 14.44027 | -90.36384 | 34000 ft | 454 kts | 306° |
| 2026-04-23 22:02 | 14.46004 | -90.38926 | 34304 ft | 454 kts | 306° |
| 2026-04-23 22:02 | 14.47972 | -90.41457 | 34643 ft | 451 kts | 306° |
| 2026-04-23 22:03 | 14.49933 | -90.43981 | 34975 ft | 450 kts | 306° |
| 2026-04-23 22:03 | 14.51888 | -90.46496 | 35326 ft | 447 kts | 306° |
| 2026-04-23 22:03 | 14.53826 | -90.48992 | 35690 ft | 445 kts | 306° |
| 2026-04-23 22:03 | 14.55698 | -90.51527 | 35993 ft | 442 kts | 298° |
| 2026-04-23 22:04 | 14.56937 | -90.54386 | 36317 ft | 435 kts | 283° |
| 2026-04-23 22:04 | 14.57506 | -90.57431 | 36574 ft | 433 kts | 278° |
| 2026-04-23 22:04 | 14.57974 | -90.60509 | 36786 ft | 433 kts | 277° |
| 2026-04-23 22:04 | 14.58400 | -90.63588 | 37023 ft | 433 kts | 277° |
| 2026-04-23 22:05 | 14.58802 | -90.66661 | 37272 ft | 432 kts | 276° |
| 2026-04-23 22:05 | 14.59191 | -90.69738 | 37523 ft | 431 kts | 276° |
| 2026-04-23 22:05 | 14.59572 | -90.72803 | 37763 ft | 431 kts | 276° |
| 2026-04-23 22:05 | 14.59949 | -90.75864 | 38021 ft | 430 kts | 276° |
| 2026-04-23 22:06 | 14.60703 | -90.82002 | 38100 ft | 432 kts | 276° |
| 2026-04-23 22:06 | 14.61454 | -90.88139 | 38113 ft | 431 kts | 276° |
| 2026-04-23 22:07 | 14.62204 | -90.94278 | 38102 ft | 431 kts | 276° |
| 2026-04-23 22:07 | 14.62948 | -91.00375 | 38084 ft | 430 kts | 276° |
| 2026-04-23 22:08 | 14.63692 | -91.06513 | 38097 ft | 431 kts | 276° |
| 2026-04-23 22:08 | 14.64435 | -91.12652 | 38061 ft | 431 kts | 276° |
| 2026-04-23 22:09 | 14.65178 | -91.18801 | 38060 ft | 433 kts | 276° |
| 2026-04-23 22:09 | 14.65922 | -91.24979 | 38048 ft | 434 kts | 276° |
| 2026-04-23 22:10 | 14.66665 | -91.31155 | 38042 ft | 434 kts | 276° |
| 2026-04-23 22:10 | 14.67406 | -91.37335 | 38039 ft | 434 kts | 276° |
| 2026-04-23 22:11 | 14.68147 | -91.43508 | 37967 ft | 433 kts | 276° |
| 2026-04-23 22:11 | 14.68887 | -91.49694 | 37919 ft | 433 kts | 276° |
| 2026-04-23 22:12 | 14.69625 | -91.55873 | 37914 ft | 432 kts | 277° |
| 2026-04-23 22:12 | 14.70354 | -91.61997 | 37906 ft | 429 kts | 277° |
| 2026-04-23 22:13 | 14.71081 | -91.68111 | 37893 ft | 429 kts | 277° |
| 2026-04-23 22:13 | 14.71807 | -91.74230 | 37898 ft | 429 kts | 277° |
| 2026-04-23 22:14 | 14.72531 | -91.80349 | 37913 ft | 429 kts | 277° |
| 2026-04-23 22:14 | 14.73254 | -91.86470 | 37912 ft | 429 kts | 277° |
| 2026-04-23 22:15 | 14.73975 | -91.92591 | 37942 ft | 429 kts | 277° |
| 2026-04-23 22:15 | 14.74695 | -91.98721 | 37927 ft | 430 kts | 277° |
| 2026-04-23 22:16 | 14.75414 | -92.04854 | 37935 ft | 430 kts | 277° |
| 2026-04-23 22:16 | 14.76131 | -92.10983 | 37927 ft | 430 kts | 277° |
| 2026-04-23 22:17 | 14.76846 | -92.17112 | 37891 ft | 430 kts | 277° |
| 2026-04-23 22:17 | 14.77559 | -92.23245 | 37887 ft | 430 kts | 277° |
| 2026-04-23 22:18 | 14.78271 | -92.29380 | 37888 ft | 430 kts | 277° |
| 2026-04-23 22:18 | 14.79022 | -92.35488 | 37871 ft | 427 kts | 282° |
| 2026-04-23 22:19 | 14.80030 | -92.38364 | 37870 ft | 427 kts | 297° |
| 2026-04-23 22:19 | 14.81544 | -92.41016 | 37884 ft | 430 kts | 299° |
| 2026-04-23 22:19 | 14.84708 | -92.46286 | 37887 ft | 432 kts | 300° |
| 2026-04-23 22:20 | 14.87920 | -92.51477 | 37885 ft | 432 kts | 301° |
| 2026-04-23 22:20 | 14.91176 | -92.56695 | 37898 ft | 432 kts | 301° |
| 2026-04-23 22:21 | 14.94439 | -92.61921 | 37896 ft | 433 kts | 301° |
| 2026-04-23 22:21 | 14.97706 | -92.67158 | 37899 ft | 433 kts | 301° |
| 2026-04-23 22:22 | 15.00967 | -92.72388 | 37893 ft | 431 kts | 300° |
| 2026-04-23 22:22 | 15.04211 | -92.77598 | 37895 ft | 431 kts | 300° |
| 2026-04-23 22:23 | 15.07459 | -92.82817 | 37896 ft | 431 kts | 300° |
| 2026-04-23 22:23 | 15.10702 | -92.88033 | 37897 ft | 431 kts | 300° |
| 2026-04-23 22:24 | 15.13947 | -92.93254 | 37894 ft | 431 kts | 300° |
| 2026-04-23 22:24 | 15.17188 | -92.98474 | 37892 ft | 431 kts | 300° |
| 2026-04-23 22:25 | 15.20432 | -93.03700 | 37888 ft | 431 kts | 300° |
| 2026-04-23 22:25 | 15.23666 | -93.08914 | 37893 ft | 431 kts | 300° |
| 2026-04-23 22:26 | 15.26901 | -93.14135 | 37897 ft | 430 kts | 300° |
| 2026-04-23 22:26 | 15.30105 | -93.19308 | 37886 ft | 429 kts | 300° |
| 2026-04-23 22:27 | 15.33333 | -93.24523 | 37885 ft | 430 kts | 300° |
| 2026-04-23 22:27 | 15.36554 | -93.29731 | 37884 ft | 430 kts | 300° |
| 2026-04-23 22:28 | 15.39774 | -93.34941 | 37893 ft | 430 kts | 300° |
| 2026-04-23 22:28 | 15.42995 | -93.40157 | 37894 ft | 429 kts | 300° |
| 2026-04-23 22:29 | 15.46209 | -93.45363 | 37894 ft | 429 kts | 300° |
| 2026-04-23 22:29 | 15.49428 | -93.50583 | 37891 ft | 429 kts | 300° |
| 2026-04-23 22:30 | 15.52651 | -93.55812 | 37880 ft | 429 kts | 300° |
| 2026-04-23 22:30 | 15.55859 | -93.61020 | 37874 ft | 429 kts | 300° |
| 2026-04-23 22:31 | 15.58531 | -93.65360 | 37890 ft | 430 kts | 300° |
| 2026-04-23 22:31 | 15.61749 | -93.70590 | 37904 ft | 429 kts | 300° |
| 2026-04-23 22:32 | 15.64955 | -93.75807 | 37885 ft | 429 kts | 300° |
| 2026-04-23 22:32 | 15.68159 | -93.81022 | 37889 ft | 429 kts | 300° |
| 2026-04-23 22:33 | 15.71365 | -93.86246 | 37889 ft | 428 kts | 300° |
| 2026-04-23 22:33 | 15.74560 | -93.91453 | 37889 ft | 428 kts | 300° |
| 2026-04-23 22:34 | 15.77756 | -93.96665 | 37885 ft | 428 kts | 300° |
| 2026-04-23 22:34 | 15.80944 | -94.01871 | 37877 ft | 427 kts | 300° |
| 2026-04-23 22:35 | 15.84137 | -94.07086 | 37878 ft | 428 kts | 300° |
| 2026-04-23 22:35 | 15.87326 | -94.12298 | 37876 ft | 428 kts | 300° |
| 2026-04-23 22:36 | 15.90515 | -94.17514 | 37869 ft | 428 kts | 300° |
| 2026-04-23 22:36 | 15.93702 | -94.22730 | 37884 ft | 428 kts | 300° |
| 2026-04-23 22:37 | 15.96892 | -94.27956 | 37879 ft | 428 kts | 300° |
| 2026-04-23 22:37 | 16.00075 | -94.33173 | 37877 ft | 427 kts | 300° |
| 2026-04-23 22:38 | 16.03257 | -94.38392 | 37879 ft | 427 kts | 300° |
| 2026-04-23 22:38 | 16.06435 | -94.43609 | 37871 ft | 427 kts | 300° |
| 2026-04-23 22:39 | 16.09614 | -94.48831 | 37866 ft | 427 kts | 300° |
| 2026-04-23 22:39 | 16.12789 | -94.54050 | 37879 ft | 427 kts | 300° |
| 2026-04-23 22:40 | 16.15965 | -94.59274 | 37866 ft | 427 kts | 300° |
| 2026-04-23 22:41 | 16.20725 | -94.67112 | 37875 ft | 427 kts | 300° |
| 2026-04-23 22:41 | 16.23898 | -94.72340 | 37868 ft | 427 kts | 300° |
| 2026-04-23 22:42 | 16.27049 | -94.77536 | 37878 ft | 427 kts | 300° |
| 2026-04-23 22:42 | 16.30218 | -94.82767 | 37895 ft | 427 kts | 300° |
| 2026-04-23 22:43 | 16.33359 | -94.87955 | 37860 ft | 422 kts | 300° |
| 2026-04-23 22:43 | 16.36491 | -94.93131 | 37875 ft | 423 kts | 300° |
| 2026-04-23 22:44 | 16.39628 | -94.98319 | 37871 ft | 423 kts | 300° |
| 2026-04-23 22:44 | 16.42770 | -95.03519 | 37868 ft | 424 kts | 300° |
| 2026-04-23 22:45 | 16.45906 | -95.08723 | 37867 ft | 424 kts | 298° |
| 2026-04-23 22:45 | 16.48818 | -95.14066 | 37864 ft | 424 kts | 298° |
| 2026-04-23 22:46 | 16.51742 | -95.19398 | 37867 ft | 424 kts | 298° |
| 2026-04-23 22:46 | 16.54663 | -95.24723 | 37863 ft | 422 kts | 298° |
| 2026-04-23 22:47 | 16.57577 | -95.30037 | 37866 ft | 423 kts | 298° |
| 2026-04-23 22:47 | 16.60499 | -95.35370 | 37871 ft | 424 kts | 298° |
| 2026-04-23 22:48 | 16.63433 | -95.40730 | 37877 ft | 426 kts | 298° |
| 2026-04-23 22:48 | 16.66368 | -95.46096 | 37882 ft | 426 kts | 298° |
| 2026-04-23 22:49 | 16.69307 | -95.51473 | 37899 ft | 426 kts | 298° |
| 2026-04-23 22:49 | 16.72241 | -95.56844 | 37867 ft | 426 kts | 298° |
| 2026-04-23 22:50 | 16.75172 | -95.62215 | 37875 ft | 426 kts | 298° |
| 2026-04-23 22:50 | 16.78104 | -95.67593 | 37888 ft | 427 kts | 298° |
| 2026-04-23 22:51 | 16.81037 | -95.72974 | 37872 ft | 427 kts | 298° |
| 2026-04-23 22:51 | 16.83967 | -95.78356 | 37886 ft | 430 kts | 298° |
| 2026-04-23 22:52 | 16.86916 | -95.83791 | 37932 ft | 431 kts | 298° |
| 2026-04-23 22:52 | 16.89865 | -95.89232 | 37918 ft | 430 kts | 298° |
| 2026-04-23 22:53 | 16.92808 | -95.94664 | 37936 ft | 429 kts | 298° |
| 2026-04-23 22:53 | 16.95751 | -96.00101 | 37937 ft | 430 kts | 298° |
| 2026-04-23 22:54 | 16.98680 | -96.05515 | 37922 ft | 425 kts | 298° |
| 2026-04-23 22:54 | 17.01589 | -96.10896 | 37936 ft | 427 kts | 298° |
| 2026-04-23 22:55 | 17.04519 | -96.16322 | 37979 ft | 431 kts | 299° |
| 2026-04-23 22:55 | 17.07456 | -96.21764 | 37918 ft | 430 kts | 299° |
| 2026-04-23 22:56 | 17.10399 | -96.27223 | 38022 ft | 432 kts | 298° |
| 2026-04-23 22:56 | 17.13339 | -96.32680 | 37994 ft | 430 kts | 299° |
| 2026-04-23 22:57 | 17.16271 | -96.38125 | 37997 ft | 431 kts | 298° |
| 2026-04-23 22:57 | 17.19211 | -96.43588 | 38004 ft | 430 kts | 298° |
| 2026-04-23 22:58 | 17.22141 | -96.49036 | 37997 ft | 430 kts | 298° |
| 2026-04-23 22:58 | 17.25074 | -96.54495 | 37983 ft | 430 kts | 298° |
| 2026-04-23 22:59 | 17.28004 | -96.59951 | 37991 ft | 430 kts | 298° |
| 2026-04-23 22:59 | 17.30907 | -96.65363 | 37989 ft | 427 kts | 298° |
| 2026-04-23 23:00 | 17.33804 | -96.70767 | 37949 ft | 426 kts | 298° |
| 2026-04-23 23:00 | 17.36704 | -96.76181 | 37939 ft | 427 kts | 298° |
| 2026-04-23 23:01 | 17.39604 | -96.81599 | 37936 ft | 427 kts | 298° |
| 2026-04-23 23:01 | 17.42502 | -96.87020 | 37900 ft | 427 kts | 298° |
| 2026-04-23 23:02 | 17.45421 | -96.92483 | 37895 ft | 431 kts | 298° |
| 2026-04-23 23:02 | 17.48343 | -96.97957 | 37910 ft | 431 kts | 298° |
| 2026-04-23 23:03 | 17.51264 | -97.03432 | 37888 ft | 431 kts | 298° |
| 2026-04-23 23:03 | 17.54183 | -97.08909 | 37906 ft | 431 kts | 298° |
| 2026-04-23 23:04 | 17.57102 | -97.14389 | 37898 ft | 430 kts | 298° |
| 2026-04-23 23:04 | 17.60253 | -97.19714 | 37861 ft | 431 kts | 312° |
| 2026-04-23 23:05 | 17.64510 | -97.24145 | 37822 ft | 432 kts | 313° |
| 2026-04-23 23:05 | 17.68781 | -97.28512 | 37877 ft | 433 kts | 314° |
| 2026-04-23 23:06 | 17.73114 | -97.32891 | 37880 ft | 432 kts | 314° |
| 2026-04-23 23:06 | 17.77443 | -97.37264 | 37847 ft | 432 kts | 314° |
| 2026-04-23 23:07 | 17.81776 | -97.41643 | 37849 ft | 432 kts | 314° |
| 2026-04-23 23:07 | 17.86107 | -97.46023 | 37848 ft | 433 kts | 314° |
| 2026-04-23 23:08 | 17.90436 | -97.50404 | 37844 ft | 433 kts | 314° |
| 2026-04-23 23:08 | 17.94776 | -97.54797 | 37814 ft | 432 kts | 314° |
| 2026-04-23 23:09 | 17.99104 | -97.59184 | 37829 ft | 433 kts | 314° |
| 2026-04-23 23:09 | 18.03441 | -97.63583 | 37814 ft | 434 kts | 314° |
| 2026-04-23 23:10 | 18.07783 | -97.67989 | 37809 ft | 434 kts | 314° |
| 2026-04-23 23:10 | 18.12122 | -97.72396 | 37823 ft | 434 kts | 314° |
| 2026-04-23 23:11 | 18.16460 | -97.76806 | 37813 ft | 434 kts | 314° |
| 2026-04-23 23:11 | 18.20796 | -97.81215 | 37806 ft | 434 kts | 314° |
| 2026-04-23 23:12 | 18.25131 | -97.85627 | 37805 ft | 434 kts | 314° |
| 2026-04-23 23:12 | 18.27301 | -97.87837 | 37696 ft | 435 kts | 315° |
| 2026-04-23 23:12 | 18.29464 | -97.90039 | 37253 ft | 430 kts | 316° |
| 2026-04-23 23:12 | 18.31591 | -97.92206 | 36478 ft | 433 kts | 316° |
| 2026-04-23 23:13 | 18.33796 | -97.94452 | 35642 ft | 437 kts | 316° |
| 2026-04-23 23:13 | 18.35952 | -97.96652 | 34940 ft | 439 kts | 317° |
| 2026-04-23 23:13 | 18.38147 | -97.98891 | 34243 ft | 440 kts | 317° |
| 2026-04-23 23:13 | 18.40350 | -98.01139 | 33473 ft | 442 kts | 317° |
| 2026-04-23 23:14 | 18.42558 | -98.03394 | 32757 ft | 442 kts | 317° |
| 2026-04-23 23:14 | 18.44784 | -98.05669 | 32158 ft | 438 kts | 317° |
| 2026-04-23 23:14 | 18.46933 | -98.07864 | 31672 ft | 433 kts | 317° |
| 2026-04-23 23:14 | 18.49089 | -98.10067 | 31147 ft | 430 kts | 317° |
| 2026-04-23 23:15 | 18.51229 | -98.12255 | 30582 ft | 428 kts | 317° |
| 2026-04-23 23:15 | 18.53385 | -98.14460 | 30035 ft | 426 kts | 317° |
| 2026-04-23 23:15 | 18.55512 | -98.16636 | 29424 ft | 424 kts | 317° |
| 2026-04-23 23:15 | 18.57622 | -98.18796 | 28814 ft | 422 kts | 317° |
| 2026-04-23 23:16 | 18.59721 | -98.20945 | 28253 ft | 419 kts | 317° |
| 2026-04-23 23:16 | 18.61800 | -98.23076 | 27732 ft | 415 kts | 316° |
| 2026-04-23 23:16 | 18.63867 | -98.25192 | 27199 ft | 412 kts | 316° |
| 2026-04-23 23:16 | 18.65914 | -98.27290 | 26673 ft | 410 kts | 316° |
| 2026-04-23 23:17 | 18.67951 | -98.29379 | 26177 ft | 407 kts | 316° |
| 2026-04-23 23:17 | 18.70029 | -98.31398 | 25711 ft | 403 kts | 324° |
| 2026-04-23 23:17 | 18.72474 | -98.32762 | 25357 ft | 397 kts | 341° |
| 2026-04-23 23:17 | 18.75158 | -98.33320 | 25109 ft | 393 kts | 352° |
| 2026-04-23 23:18 | 18.76965 | -98.33541 | 24938 ft | 396 kts | 352° |
| 2026-04-23 23:18 | 18.79702 | -98.33839 | 24664 ft | 396 kts | 353° |
| 2026-04-23 23:18 | 18.82445 | -98.34108 | 24375 ft | 395 kts | 353° |
| 2026-04-23 23:18 | 18.86065 | -98.34438 | 23993 ft | 394 kts | 354° |
| 2026-04-23 23:19 | 18.88794 | -98.34676 | 23702 ft | 393 kts | 354° |
| 2026-04-23 23:19 | 18.90633 | -98.34835 | 23510 ft | 393 kts | 354° |
| 2026-04-23 23:19 | 18.93357 | -98.35069 | 23233 ft | 392 kts | 354° |
| 2026-04-23 23:19 | 18.96061 | -98.35301 | 22899 ft | 389 kts | 353° |
| 2026-04-23 23:20 | 18.98744 | -98.35531 | 22908 ft | 386 kts | 354° |
| 2026-04-23 23:20 | 19.01415 | -98.35759 | 22667 ft | 384 kts | 353° |
| 2026-04-23 23:20 | 19.04077 | -98.35987 | 22424 ft | 382 kts | 354° |
| 2026-04-23 23:20 | 19.06717 | -98.36213 | 22190 ft | 381 kts | 353° |
| 2026-04-23 23:21 | 19.09347 | -98.36439 | 21910 ft | 378 kts | 354° |
| 2026-04-23 23:21 | 19.11960 | -98.36663 | 21638 ft | 377 kts | 353° |
| 2026-04-23 23:21 | 19.14566 | -98.36887 | 21361 ft | 374 kts | 354° |
| 2026-04-23 23:21 | 19.17139 | -98.37217 | 21030 ft | 372 kts | 349° |
| 2026-04-23 23:22 | 19.19689 | -98.37639 | 20677 ft | 369 kts | 350° |
| 2026-04-23 23:22 | 19.22215 | -98.38043 | 20340 ft | 367 kts | 350° |
| 2026-04-23 23:22 | 19.24741 | -98.38436 | 19948 ft | 366 kts | 350° |
| 2026-04-23 23:22 | 19.27215 | -98.38825 | 19588 ft | 362 kts | 351° |
| 2026-04-23 23:23 | 19.29711 | -98.39215 | 19204 ft | 364 kts | 350° |
| 2026-04-23 23:23 | 19.31885 | -98.39555 | 18833 ft | 362 kts | 350° |
| 2026-04-23 23:23 | 19.33800 | -98.39852 | 18406 ft | 363 kts | 350° |
| 2026-04-23 23:23 | 19.36266 | -98.40237 | 17968 ft | 355 kts | 351° |
| 2026-04-23 23:24 | 19.38704 | -98.40645 | 17547 ft | 354 kts | 345° |
| 2026-04-23 23:24 | 19.40940 | -98.41653 | 17146 ft | 350 kts | 325° |
| 2026-04-23 23:24 | 19.42721 | -98.43438 | 16807 ft | 349 kts | 307° |
| 2026-04-23 23:24 | 19.43941 | -98.45615 | 16374 ft | 348 kts | 299° |
| 2026-04-23 23:25 | 19.45035 | -98.47868 | 16051 ft | 339 kts | 297° |
| 2026-04-23 23:25 | 19.46057 | -98.50064 | 15713 ft | 326 kts | 297° |
| 2026-04-23 23:25 | 19.47020 | -98.52183 | 15414 ft | 313 kts | 297° |
| 2026-04-23 23:25 | 19.47934 | -98.54218 | 15100 ft | 295 kts | 296° |
| 2026-04-23 23:26 | 19.48778 | -98.56113 | 14850 ft | 275 kts | 296° |
| 2026-04-23 23:26 | 19.49565 | -98.57889 | 14607 ft | 258 kts | 296° |
| 2026-04-23 23:26 | 19.50305 | -98.59565 | 14363 ft | 244 kts | 296° |
| 2026-04-23 23:26 | 19.51006 | -98.61157 | 14105 ft | 233 kts | 296° |
| 2026-04-23 23:27 | 19.51683 | -98.62695 | 13865 ft | 230 kts | 296° |
| 2026-04-23 23:27 | 19.52365 | -98.64243 | 13628 ft | 235 kts | 296° |
| 2026-04-23 23:27 | 19.53062 | -98.65827 | 13319 ft | 238 kts | 296° |
| 2026-04-23 23:27 | 19.53759 | -98.67413 | 13015 ft | 237 kts | 296° |
| 2026-04-23 23:28 | 19.54455 | -98.68998 | 12742 ft | 237 kts | 296° |
| 2026-04-23 23:28 | 19.55150 | -98.70579 | 12437 ft | 237 kts | 296° |
| 2026-04-23 23:28 | 19.55845 | -98.72159 | 12183 ft | 235 kts | 296° |
| 2026-04-23 23:28 | 19.56530 | -98.73717 | 12023 ft | 231 kts | 297° |
| 2026-04-23 23:29 | 19.57204 | -98.75254 | 11876 ft | 230 kts | 297° |
| 2026-04-23 23:29 | 19.57878 | -98.76789 | 11771 ft | 229 kts | 296° |
| 2026-04-23 23:29 | 19.58485 | -98.78348 | 11616 ft | 230 kts | 284° |
| 2026-04-23 23:29 | 19.58462 | -98.80048 | 11366 ft | 235 kts | 257° |
| 2026-04-23 23:30 | 19.57765 | -98.81620 | 11162 ft | 237 kts | 243° |
| 2026-04-23 23:30 | 19.56934 | -98.83128 | 10935 ft | 238 kts | 242° |
| 2026-04-23 23:30 | 19.56092 | -98.84639 | 10677 ft | 238 kts | 241° |
| 2026-04-23 23:30 | 19.55248 | -98.86149 | 10422 ft | 238 kts | 241° |
| 2026-04-23 23:31 | 19.54407 | -98.87657 | 10131 ft | 237 kts | 241° |
| 2026-04-23 23:31 | 19.53586 | -98.89127 | 9881 ft | 232 kts | 241° |
| 2026-04-23 23:31 | 19.52768 | -98.90591 | 9826 ft | 231 kts | 241° |
| 2026-04-23 23:31 | 19.51950 | -98.92053 | 9894 ft | 232 kts | 240° |
| 2026-04-23 23:32 | 19.51127 | -98.93527 | 9687 ft | 229 kts | 240° |
| 2026-04-23 23:32 | 19.50360 | -98.94899 | 9588 ft | 204 kts | 240° |
| 2026-04-23 23:32 | 19.49685 | -98.96107 | 9493 ft | 178 kts | 240° |
| 2026-04-23 23:32 | 19.49068 | -98.97213 | 9384 ft | 172 kts | 240° |
| 2026-04-23 23:33 | 19.48458 | -98.98303 | 9191 ft | 172 kts | 240° |
| 2026-04-23 23:33 | 19.47850 | -98.99392 | 8953 ft | 171 kts | 240° |
| 2026-04-23 23:33 | 19.47245 | -99.00472 | 8614 ft | 169 kts | 240° |
| 2026-04-23 23:33 | 19.46646 | -99.01542 | 8277 ft | 168 kts | 240° |
| 2026-04-23 23:34 | 19.46050 | -99.02601 | 7995 ft | 165 kts | 239° |
| 2026-04-23 23:34 | 19.45464 | -99.03645 | 7766 ft | 164 kts | 240° |
| 2026-04-23 23:34 | 19.44889 | -99.04683 | 7501 ft | 163 kts | 240° |
| 2026-04-23 23:34 | 19.44315 | -99.05707 | 7307 ft | 154 kts | 239° |
| 2026-04-23 23:35 | 19.43857 | -99.06524 | 7305 ft | 98 kts | 239° |
| 2026-04-23 23:35 | 19.43596 | -99.06989 | 7304 ft | 57 kts | 239° |
| 2026-04-23 23:35 | 19.43434 | -99.07277 | 7305 ft | 35 kts | 239° |
| 2026-04-23 23:35 | 19.43328 | -99.07419 | 7306 ft | 22 kts | 200° |
| 2026-04-23 23:36 | 19.43233 | -99.07446 | 7305 ft | 9 kts | 193° |
| 2026-04-23 23:36 | 19.43175 | -99.07461 | 7305 ft | 8 kts | 193° |
| 2026-04-23 23:36 | 19.43117 | -99.07476 | 7305 ft | 9 kts | 194° |
| 2026-04-23 23:36 | 19.43054 | -99.07493 | 7305 ft | 10 kts | 194° |
| 2026-04-23 23:37 | 19.42987 | -99.07512 | 7305 ft | 10 kts | 201° |
| 2026-04-23 23:37 | 19.42945 | -99.07569 | 7305 ft | 10 kts | 239° |
| 2026-04-23 23:37 | 19.42903 | -99.07650 | 7305 ft | 16 kts | 243° |
| 2026-04-23 23:37 | 19.42840 | -99.07766 | 7305 ft | 19 kts | 239° |
| 2026-04-23 23:38 | 19.42772 | -99.07890 | 7305 ft | 20 kts | 240° |
| 2026-04-23 23:38 | 19.42702 | -99.08014 | 7305 ft | 20 kts | 239° |
| 2026-04-23 23:38 | 19.42638 | -99.08127 | 7305 ft | 14 kts | 240° |
| 2026-04-23 23:38 | 19.42572 | -99.08131 | 7305 ft | 11 kts | 148° |
| 2026-04-23 23:39 | 19.42506 | -99.08088 | 7305 ft | 12 kts | 150° |
| 2026-04-23 23:39 | 19.42435 | -99.08044 | 7305 ft | 12 kts | 150° |
| 2026-04-23 23:39 | 19.42363 | -99.07992 | 7305 ft | 13 kts | 131° |
| 2026-04-23 23:39 | 19.42313 | -99.07924 | 7305 ft | 10 kts | 115° |
| 2026-04-23 23:40 | 19.42326 | -99.07870 | 7305 ft | 5 kts | 59° |
| 2026-04-23 23:40 | 19.42335 | -99.07854 | 7305 ft | 0 kts | 59° |